sensor_id;sensor_type;location;lat;lon;timestamp;temperature;humidity
27409;DHT22;20413;50.782;7.152;2022-12-18T11:43:27;-0.60;99.90
27409;DHT22;20413;50.782;7.152;2022-12-18T11:46:19;-0.50;99.90
27409;DHT22;20413;50.782;7.152;2022-12-18T11:49:01;-0.60;99.90
27409;DHT22;20413;50.782;7.152;2022-12-18T11:51:33;-0.60;99.90
27409;DHT22;20413;50.782;7.152;2022-12-18T11:54:01;-0.60;99.90
27409;DHT22;20413;50.782;7.152;2022-12-18T11:56:36;-0.60;99.90
27409;DHT22;20413;50.782;7.152;2022-12-18T12:01:55;-0.70;99.90
27409;DHT22;20413;50.782;7.152;2022-12-18T12:12:33;-0.70;99.90
27409;DHT22;20413;50.782;7.152;2022-12-18T12:21:20;-0.70;99.90
27409;DHT22;20413;50.782;7.152;2022-12-18T12:38:16;-0.60;99.90
27409;DHT22;20413;50.782;7.152;2022-12-18T12:48:46;-0.70;99.90
27409;DHT22;20413;50.782;7.152;2022-12-18T12:56:13;-0.70;99.90
27409;DHT22;20413;50.782;7.152;2022-12-18T13:01:42;-0.60;99.90
27409;DHT22;20413;50.782;7.152;2022-12-18T17:26:15;-1.40;99.90
27409;DHT22;20413;50.782;7.152;2022-12-18T17:28:40;-1.40;99.90
27409;DHT22;20413;50.782;7.152;2022-12-18T17:31:14;-1.40;99.90
27409;DHT22;20413;50.782;7.152;2022-12-18T17:33:41;-1.40;99.90
27409;DHT22;20413;50.782;7.152;2022-12-18T17:36:06;-1.40;99.90
27409;DHT22;20413;50.782;7.152;2022-12-18T17:38:32;-1.40;99.90
27409;DHT22;20413;50.782;7.152;2022-12-18T17:41:02;-1.40;99.90
27409;DHT22;20413;50.782;7.152;2022-12-18T17:43:28;-1.40;99.90
27409;DHT22;20413;50.782;7.152;2022-12-18T17:45:54;-1.40;99.90
27409;DHT22;20413;50.782;7.152;2022-12-18T17:48:19;-1.40;99.90
27409;DHT22;20413;50.782;7.152;2022-12-18T17:50:45;-1.40;99.90
27409;DHT22;20413;50.782;7.152;2022-12-18T17:53:11;-1.40;99.90
27409;DHT22;20413;50.782;7.152;2022-12-18T17:55:36;-1.40;99.90
27409;DHT22;20413;50.782;7.152;2022-12-18T17:58:02;-1.40;99.90
27409;DHT22;20413;50.782;7.152;2022-12-18T18:00:27;-1.40;99.90
27409;DHT22;20413;50.782;7.152;2022-12-18T18:02:53;-1.40;99.90
27409;DHT22;20413;50.782;7.152;2022-12-18T18:05:19;-1.40;99.90
27409;DHT22;20413;50.782;7.152;2022-12-18T18:07:45;-1.30;99.90
27409;DHT22;20413;50.782;7.152;2022-12-18T18:10:11;-1.40;99.90
27409;DHT22;20413;50.782;7.152;2022-12-18T18:12:36;-1.30;99.90
27409;DHT22;20413;50.782;7.152;2022-12-18T18:15:20;-1.40;99.90
27409;DHT22;20413;50.782;7.152;2022-12-18T18:17:46;-1.30;99.90
27409;DHT22;20413;50.782;7.152;2022-12-18T18:20:12;-1.30;99.90
27409;DHT22;20413;50.782;7.152;2022-12-18T18:22:39;-1.30;99.90
27409;DHT22;20413;50.782;7.152;2022-12-18T18:25:05;-1.30;99.90
27409;DHT22;20413;50.782;7.152;2022-12-18T18:27:31;-1.20;99.90
27409;DHT22;20413;50.782;7.152;2022-12-18T18:29:56;-1.20;99.90
27409;DHT22;20413;50.782;7.152;2022-12-18T18:32:22;-1.20;99.90
27409;DHT22;20413;50.782;7.152;2022-12-18T18:34:47;-1.20;99.90
27409;DHT22;20413;50.782;7.152;2022-12-18T18:37:13;-1.20;99.90
27409;DHT22;20413;50.782;7.152;2022-12-18T18:39:39;-1.20;99.90
27409;DHT22;20413;50.782;7.152;2022-12-18T18:42:04;-1.10;99.90
27409;DHT22;20413;50.782;7.152;2022-12-18T18:44:30;-1.20;99.90
27409;DHT22;20413;50.782;7.152;2022-12-18T18:46:57;-1.20;99.90
27409;DHT22;20413;50.782;7.152;2022-12-18T18:49:23;-1.20;99.90
27409;DHT22;20413;50.782;7.152;2022-12-18T18:51:52;-1.20;99.90
27409;DHT22;20413;50.782;7.152;2022-12-18T18:54:18;-1.20;99.90
27409;DHT22;20413;50.782;7.152;2022-12-18T18:56:43;-1.20;99.90
27409;DHT22;20413;50.782;7.152;2022-12-18T18:59:09;-1.20;99.90
27409;DHT22;20413;50.782;7.152;2022-12-18T19:01:35;-1.20;99.90
27409;DHT22;20413;50.782;7.152;2022-12-18T19:04:00;-1.20;99.90
27409;DHT22;20413;50.782;7.152;2022-12-18T19:06:27;-1.20;99.90
27409;DHT22;20413;50.782;7.152;2022-12-18T19:08:53;-1.10;99.90
27409;DHT22;20413;50.782;7.152;2022-12-18T19:11:20;-1.00;99.90
27409;DHT22;20413;50.782;7.152;2022-12-18T19:14:06;-1.00;99.90
27409;DHT22;20413;50.782;7.152;2022-12-18T19:16:34;-1.00;99.90
27409;DHT22;20413;50.782;7.152;2022-12-18T19:18:59;-1.10;99.90
27409;DHT22;20413;50.782;7.152;2022-12-18T19:21:25;-1.00;99.90
27409;DHT22;20413;50.782;7.152;2022-12-18T19:23:51;-1.10;99.90
27409;DHT22;20413;50.782;7.152;2022-12-18T19:26:17;-1.00;99.90
27409;DHT22;20413;50.782;7.152;2022-12-18T19:28:43;-1.00;99.90
27409;DHT22;20413;50.782;7.152;2022-12-18T19:31:11;-1.00;99.90
27409;DHT22;20413;50.782;7.152;2022-12-18T19:33:40;-1.00;99.90
27409;DHT22;20413;50.782;7.152;2022-12-18T19:36:13;-1.00;99.90
27409;DHT22;20413;50.782;7.152;2022-12-18T19:38:40;-1.00;99.90
27409;DHT22;20413;50.782;7.152;2022-12-18T19:41:06;-0.90;99.90
27409;DHT22;20413;50.782;7.152;2022-12-18T19:43:33;-0.90;99.90
27409;DHT22;20413;50.782;7.152;2022-12-18T19:46:03;-0.90;99.90
27409;DHT22;20413;50.782;7.152;2022-12-18T19:48:29;-0.90;99.90
27409;DHT22;20413;50.782;7.152;2022-12-18T19:50:54;-0.80;99.90
27409;DHT22;20413;50.782;7.152;2022-12-18T19:53:20;-0.80;99.90
27409;DHT22;20413;50.782;7.152;2022-12-18T19:55:45;-0.80;99.90
27409;DHT22;20413;50.782;7.152;2022-12-18T19:58:11;-0.70;99.90
27409;DHT22;20413;50.782;7.152;2022-12-18T20:00:37;-0.80;99.90
27409;DHT22;20413;50.782;7.152;2022-12-18T20:03:02;-0.80;99.90
27409;DHT22;20413;50.782;7.152;2022-12-18T20:05:28;-0.70;99.90
27409;DHT22;20413;50.782;7.152;2022-12-18T20:07:54;-0.70;99.90
27409;DHT22;20413;50.782;7.152;2022-12-18T20:10:19;-0.70;99.90
27409;DHT22;20413;50.782;7.152;2022-12-18T20:12:45;-0.70;99.90
27409;DHT22;20413;50.782;7.152;2022-12-18T20:15:10;-0.70;99.90
27409;DHT22;20413;50.782;7.152;2022-12-18T20:17:37;-0.70;99.90
27409;DHT22;20413;50.782;7.152;2022-12-18T20:20:03;-0.60;99.90
27409;DHT22;20413;50.782;7.152;2022-12-18T20:22:28;-0.60;99.90
27409;DHT22;20413;50.782;7.152;2022-12-18T20:24:54;-0.60;99.90
27409;DHT22;20413;50.782;7.152;2022-12-18T20:27:20;-0.60;99.90
27409;DHT22;20413;50.782;7.152;2022-12-18T20:29:46;-0.50;99.90
27409;DHT22;20413;50.782;7.152;2022-12-18T20:32:13;-0.50;99.90
27409;DHT22;20413;50.782;7.152;2022-12-18T20:34:38;-0.40;99.90
27409;DHT22;20413;50.782;7.152;2022-12-18T20:37:04;-0.40;99.90
27409;DHT22;20413;50.782;7.152;2022-12-18T20:39:29;-0.40;99.90
27409;DHT22;20413;50.782;7.152;2022-12-18T20:41:55;-0.30;99.90
27409;DHT22;20413;50.782;7.152;2022-12-18T20:44:21;-0.30;99.90
27409;DHT22;20413;50.782;7.152;2022-12-18T20:46:47;-0.30;99.90
27409;DHT22;20413;50.782;7.152;2022-12-18T20:49:13;-0.20;99.90
27409;DHT22;20413;50.782;7.152;2022-12-18T20:51:39;-0.20;99.90
27409;DHT22;20413;50.782;7.152;2022-12-18T20:54:04;-0.20;99.90
27409;DHT22;20413;50.782;7.152;2022-12-18T20:56:30;-0.20;99.90
27409;DHT22;20413;50.782;7.152;2022-12-18T20:58:57;-0.20;99.90
27409;DHT22;20413;50.782;7.152;2022-12-18T21:01:23;-0.20;99.90
27409;DHT22;20413;50.782;7.152;2022-12-18T21:03:50;-0.10;99.90
27409;DHT22;20413;50.782;7.152;2022-12-18T21:06:18;-0.10;99.90
27409;DHT22;20413;50.782;7.152;2022-12-18T21:08:44;0.00;99.90
27409;DHT22;20413;50.782;7.152;2022-12-18T21:14:05;0.00;99.90
27409;DHT22;20413;50.782;7.152;2022-12-18T21:16:31;0.00;99.90
27409;DHT22;20413;50.782;7.152;2022-12-18T21:18:57;0.10;99.90
27409;DHT22;20413;50.782;7.152;2022-12-18T21:21:22;0.10;99.90
27409;DHT22;20413;50.782;7.152;2022-12-18T21:23:48;0.10;99.90
27409;DHT22;20413;50.782;7.152;2022-12-18T21:26:18;0.10;99.90
27409;DHT22;20413;50.782;7.152;2022-12-18T21:28:45;0.20;99.90
27409;DHT22;20413;50.782;7.152;2022-12-18T21:31:10;0.20;99.90
27409;DHT22;20413;50.782;7.152;2022-12-18T21:33:36;0.20;99.90
27409;DHT22;20413;50.782;7.152;2022-12-18T21:36:06;0.20;99.90
27409;DHT22;20413;50.782;7.152;2022-12-18T21:38:31;0.20;99.90
27409;DHT22;20413;50.782;7.152;2022-12-18T21:40:57;0.20;99.90
27409;DHT22;20413;50.782;7.152;2022-12-18T21:43:23;0.20;99.90
27409;DHT22;20413;50.782;7.152;2022-12-18T21:46:07;0.20;99.90
27409;DHT22;20413;50.782;7.152;2022-12-18T21:48:33;0.20;99.90
27409;DHT22;20413;50.782;7.152;2022-12-18T21:50:59;0.30;99.90
27409;DHT22;20413;50.782;7.152;2022-12-18T21:53:24;0.30;99.90
27409;DHT22;20413;50.782;7.152;2022-12-18T21:55:59;0.30;99.90
27409;DHT22;20413;50.782;7.152;2022-12-18T21:58:25;0.30;99.90
27409;DHT22;20413;50.782;7.152;2022-12-18T22:00:51;0.30;99.90
27409;DHT22;20413;50.782;7.152;2022-12-18T22:03:17;0.30;99.90
27409;DHT22;20413;50.782;7.152;2022-12-18T22:05:43;0.30;99.90
27409;DHT22;20413;50.782;7.152;2022-12-18T22:08:09;0.30;99.90
27409;DHT22;20413;50.782;7.152;2022-12-18T22:10:36;0.30;99.90
27409;DHT22;20413;50.782;7.152;2022-12-18T22:13:01;0.30;99.90
27409;DHT22;20413;50.782;7.152;2022-12-18T22:15:28;0.30;99.90
27409;DHT22;20413;50.782;7.152;2022-12-18T22:17:53;0.30;99.90
27409;DHT22;20413;50.782;7.152;2022-12-18T22:20:19;0.30;99.90
27409;DHT22;20413;50.782;7.152;2022-12-18T22:22:44;0.40;99.90
27409;DHT22;20413;50.782;7.152;2022-12-18T22:25:10;0.40;99.90
27409;DHT22;20413;50.782;7.152;2022-12-18T22:27:36;0.40;99.90
27409;DHT22;20413;50.782;7.152;2022-12-18T22:30:03;0.40;99.90
27409;DHT22;20413;50.782;7.152;2022-12-18T22:32:32;0.40;99.90
27409;DHT22;20413;50.782;7.152;2022-12-18T22:35:03;0.40;99.90
27409;DHT22;20413;50.782;7.152;2022-12-18T22:37:29;0.50;99.90
27409;DHT22;20413;50.782;7.152;2022-12-18T22:39:55;0.50;99.90
27409;DHT22;20413;50.782;7.152;2022-12-18T22:42:21;0.50;99.90
27409;DHT22;20413;50.782;7.152;2022-12-18T22:44:46;0.50;99.90
27409;DHT22;20413;50.782;7.152;2022-12-18T22:47:12;0.50;99.90
27409;DHT22;20413;50.782;7.152;2022-12-18T22:49:38;0.60;99.90
27409;DHT22;20413;50.782;7.152;2022-12-18T22:52:05;0.50;99.90
27409;DHT22;20413;50.782;7.152;2022-12-18T22:54:31;0.50;99.90
27409;DHT22;20413;50.782;7.152;2022-12-18T22:56:57;0.50;99.90
27409;DHT22;20413;50.782;7.152;2022-12-18T22:59:23;0.50;99.90
27409;DHT22;20413;50.782;7.152;2022-12-18T23:01:49;0.50;99.90
27409;DHT22;20413;50.782;7.152;2022-12-18T23:04:16;0.50;99.90
27409;DHT22;20413;50.782;7.152;2022-12-18T23:06:43;0.60;99.90
27409;DHT22;20413;50.782;7.152;2022-12-18T23:09:17;0.60;99.90
27409;DHT22;20413;50.782;7.152;2022-12-18T23:11:43;0.60;99.90
27409;DHT22;20413;50.782;7.152;2022-12-18T23:14:09;0.60;99.90
27409;DHT22;20413;50.782;7.152;2022-12-18T23:16:35;0.60;99.90
27409;DHT22;20413;50.782;7.152;2022-12-18T23:19:01;0.60;99.90
27409;DHT22;20413;50.782;7.152;2022-12-18T23:21:27;0.60;99.90
27409;DHT22;20413;50.782;7.152;2022-12-18T23:23:53;0.70;99.90
27409;DHT22;20413;50.782;7.152;2022-12-18T23:26:21;0.70;99.90
27409;DHT22;20413;50.782;7.152;2022-12-18T23:28:49;0.70;99.90
27409;DHT22;20413;50.782;7.152;2022-12-18T23:31:20;0.70;99.90
27409;DHT22;20413;50.782;7.152;2022-12-18T23:33:49;0.70;99.90
27409;DHT22;20413;50.782;7.152;2022-12-18T23:36:16;0.60;99.90
27409;DHT22;20413;50.782;7.152;2022-12-18T23:38:47;0.70;99.90
27409;DHT22;20413;50.782;7.152;2022-12-18T23:41:14;0.70;99.90
27409;DHT22;20413;50.782;7.152;2022-12-18T23:43:40;0.70;99.90
27409;DHT22;20413;50.782;7.152;2022-12-18T23:46:29;0.70;99.90
27409;DHT22;20413;50.782;7.152;2022-12-18T23:49:12;0.70;99.90
27409;DHT22;20413;50.782;7.152;2022-12-18T23:51:38;0.80;99.90
27409;DHT22;20413;50.782;7.152;2022-12-18T23:54:03;0.80;99.90
27409;DHT22;20413;50.782;7.152;2022-12-18T23:56:29;0.80;99.90
27409;DHT22;20413;50.782;7.152;2022-12-18T23:58:55;0.80;99.90
